Time;durP1;ratioP1;P1;durP2;ratioP2;P2;SDS_P1;SDS_P2;PMS_P1;PMS_P2;Temp;Humidity;BMP_temperature;BMP_pressure;BME280_temperature;BME280_humidity;BME280_pressure;Samples;Min_cycle;Max_cycle;Signal;HPM_P1;HPM_P2
2023/06/20 00:00:40;;;;;;;6.07;3.33;;;19.60;99.90;;;;;;5030499;28;20640;-69
2023/06/20 00:03:05;;;;;;;7.33;2.97;;;19.60;99.90;;;;;;5030979;28;20467;-69
2023/06/20 00:05:31;;;;;;;4.60;3.47;;;19.70;99.90;;;;;;5030554;28;20561;-68
2023/06/20 00:07:57;;;;;;;5.60;2.67;;;19.70;99.90;;;;;;5030823;28;20237;-69
2023/06/20 00:10:23;;;;;;;5.90;3.40;;;19.80;99.90;;;;;;5030403;28;20190;-69
2023/06/20 00:12:48;;;;;;;8.30;3.97;;;19.90;99.90;;;;;;5029776;28;20439;-69
2023/06/20 00:15:14;;;;;;;5.80;3.60;;;19.90;99.90;;;;;;5039832;28;20182;-69
2023/06/20 00:17:40;;;;;;;7.80;3.33;;;20.00;99.90;;;;;;5035760;28;20261;-68
2023/06/20 00:20:07;;;;;;;5.67;3.30;;;20.00;99.90;;;;;;5030800;28;20607;-68
2023/06/20 00:22:35;;;;;;;6.70;3.63;;;20.10;99.90;;;;;;5030370;28;20189;-67
2023/06/20 00:25:03;;;;;;;6.50;3.53;;;20.20;99.90;;;;;;5040350;28;20417;-66
2023/06/20 00:27:29;;;;;;;8.17;4.17;;;20.10;99.90;;;;;;5030373;28;20498;-72
2023/06/20 00:29:54;;;;;;;5.07;3.37;;;20.00;99.90;;;;;;5030767;28;20428;-67
2023/06/20 00:32:20;;;;;;;6.50;3.00;;;19.70;99.90;;;;;;5030399;28;20281;-69
2023/06/20 00:34:46;;;;;;;8.00;4.03;;;19.50;99.90;;;;;;5030619;28;20197;-68
2023/06/20 00:37:11;;;;;;;7.07;3.93;;;19.30;99.90;;;;;;5030597;28;20614;-70
2023/06/20 00:39:37;;;;;;;6.73;4.50;;;19.10;99.90;;;;;;5012426;28;20628;-70
2023/06/20 00:42:04;;;;;;;8.33;4.00;;;18.90;99.90;;;;;;5033283;28;20224;-74
2023/06/20 00:44:29;;;;;;;6.70;4.60;;;18.80;99.90;;;;;;5037767;28;20176;-70
2023/06/20 00:46:55;;;;;;;9.83;6.23;;;18.70;99.90;;;;;;5046438;28;20421;-71
2023/06/20 00:49:21;;;;;;;9.33;4.83;;;18.60;99.90;;;;;;5034349;28;20178;-72
2023/06/20 00:51:49;;;;;;;6.73;4.40;;;18.50;99.90;;;;;;5034114;28;20186;-71
2023/06/20 00:54:15;;;;;;;6.90;4.50;;;18.50;99.90;;;;;;5033893;28;21210;-72
2023/06/20 00:56:42;;;;;;;8.43;4.60;;;18.50;99.90;;;;;;5034404;28;20838;-71
2023/06/20 00:59:07;;;;;;;7.80;4.10;;;18.40;99.90;;;;;;5034073;28;20284;-70
2023/06/20 01:01:33;;;;;;;9.03;4.50;;;18.40;99.90;;;;;;5033584;28;20496;-73
2023/06/20 01:04:00;;;;;;;8.90;4.40;;;18.30;99.90;;;;;;5034578;28;20199;-73
2023/06/20 01:06:41;;;;;;;8.70;4.00;;;18.30;99.90;;;;;;5034738;28;20663;-74
2023/06/20 01:09:22;;;;;;;5.17;3.27;;;18.20;99.90;;;;;;5034748;28;20421;-75
2023/06/20 01:12:05;;;;;;;6.60;3.83;;;18.10;99.90;;;;;;5033538;28;20778;-74
2023/06/20 01:14:49;;;;;;;6.60;4.00;;;18.10;99.90;;;;;;5044394;28;20507;-73
2023/06/20 01:17:35;;;;;;;5.13;3.50;;;18.10;99.90;;;;;;5040153;28;20535;-74
2023/06/20 01:20:13;;;;;;;6.33;4.07;;;18.10;99.90;;;;;;5025008;28;20542;-74
2023/06/20 01:22:41;;;;;;;9.63;4.53;;;18.10;99.90;;;;;;5033585;28;20425;-74
2023/06/20 01:25:24;;;;;;;7.27;3.87;;;18.00;99.90;;;;;;5043467;28;20504;-74
2023/06/20 01:28:18;;;;;;;5.67;3.80;;;18.00;99.90;;;;;;5033837;28;20492;-75
2023/06/20 01:30:50;;;;;;;7.20;3.90;;;17.90;99.90;;;;;;5033649;28;20421;-74
2023/06/20 01:33:19;;;;;;;7.67;4.00;;;17.90;99.90;;;;;;5033933;28;20417;-73
2023/06/20 01:35:47;;;;;;;8.20;4.30;;;17.90;99.90;;;;;;5033710;28;20452;-73
2023/06/20 01:38:14;;;;;;;5.10;2.87;;;17.80;99.90;;;;;;5033783;28;20817;-73
2023/06/20 01:40:47;;;;;;;7.03;3.77;;;17.80;99.90;;;;;;5033000;28;20468;-72
2023/06/20 01:43:14;;;;;;;5.00;3.00;;;17.80;99.90;;;;;;5033903;28;20421;-73
2023/06/20 01:45:43;;;;;;;5.00;3.17;;;17.80;99.90;;;;;;5033213;28;21228;-73
2023/06/20 01:48:11;;;;;;;7.87;3.30;;;17.70;99.90;;;;;;5037851;28;20433;-73
2023/06/20 01:50:38;;;;;;;6.30;3.03;;;17.70;99.90;;;;;;5033639;28;20429;-73
2023/06/20 01:53:05;;;;;;;5.83;2.90;;;17.60;99.90;;;;;;5033570;28;20425;-73
2023/06/20 01:55:33;;;;;;;8.23;3.13;;;17.60;99.90;;;;;;5033559;28;20483;-73
2023/06/20 01:57:59;;;;;;;4.20;2.83;;;17.60;99.90;;;;;;5033726;28;20890;-73
2023/06/20 02:00:29;;;;;;;9.40;3.37;;;17.60;99.90;;;;;;5020576;28;20465;-73
2023/06/20 02:02:57;;;;;;;4.77;2.67;;;17.50;99.90;;;;;;5033515;28;20425;-74
2023/06/20 02:05:24;;;;;;;3.87;2.67;;;17.50;99.90;;;;;;5033613;28;20531;-73
2023/06/20 02:07:54;;;;;;;3.57;2.03;;;17.50;99.90;;;;;;5033401;28;20922;-74
2023/06/20 02:10:21;;;;;;;4.00;2.50;;;17.50;99.90;;;;;;5033040;28;20459;-73
2023/06/20 02:12:50;;;;;;;4.60;3.30;;;17.50;99.90;;;;;;5032762;28;20425;-73
2023/06/20 02:15:17;;;;;;;8.13;3.17;;;17.50;99.90;;;;;;5035073;28;20778;-74
2023/06/20 02:17:44;;;;;;;6.83;2.97;;;17.50;99.90;;;;;;5037633;28;20433;-74
2023/06/20 02:20:11;;;;;;;6.10;3.23;;;17.40;99.90;;;;;;5033317;28;20468;-74
2023/06/20 02:22:37;;;;;;;5.07;2.93;;;17.40;99.90;;;;;;5032575;28;20448;-74
2023/06/20 02:25:07;;;;;;;4.47;2.50;;;17.30;99.90;;;;;;5042882;28;20417;-74
2023/06/20 02:27:33;;;;;;;10.80;2.60;;;17.40;99.90;;;;;;5033112;28;20478;-75
2023/06/20 02:30:00;;;;;;;6.50;3.07;;;17.40;99.90;;;;;;5038375;28;20459;-74
2023/06/20 02:32:28;;;;;;;6.83;3.30;;;17.40;99.90;;;;;;5036158;28;20548;-75
2023/06/20 02:34:55;;;;;;;4.90;2.60;;;17.40;99.90;;;;;;5032952;28;20448;-75
2023/06/20 02:37:24;;;;;;;4.80;2.90;;;17.50;99.90;;;;;;5032878;28;20417;-75
2023/06/20 02:39:50;;;;;;;7.77;3.90;;;17.50;99.90;;;;;;5032345;28;20461;-75
2023/06/20 02:42:17;;;;;;;4.00;2.40;;;17.40;99.90;;;;;;5032425;28;20425;-75
2023/06/20 02:44:43;;;;;;;5.27;2.97;;;17.50;99.90;;;;;;5037677;28;20178;-76
2023/06/20 02:47:39;;;;;;;8.00;3.83;;;17.40;99.90;;;;;;5038960;28;20432;-77
2023/06/20 02:50:20;;;;;;;8.23;3.03;;;17.40;99.90;;;;;;5032541;28;20292;-77
2023/06/20 02:53:00;;;;;;;5.00;2.97;;;17.40;99.90;;;;;;5032512;28;20520;-77
2023/06/20 02:56:06;;;;;;;4.87;2.50;;;17.40;99.90;;;;;;5032460;28;20416;-76
2023/06/20 02:58:34;;;;;;;4.33;2.60;;;17.40;99.90;;;;;;4951816;29;20797;-76
2023/06/20 03:01:01;;;;;;;4.93;2.73;;;17.40;99.90;;;;;;5019368;28;20902;-77
2023/06/20 03:03:30;;;;;;;7.93;3.70;;;17.30;99.90;;;;;;5031887;28;20905;-77
2023/06/20 03:05:57;;;;;;;8.50;3.30;;;17.30;99.90;;;;;;5032517;28;20512;-77
2023/06/20 03:08:28;;;;;;;5.23;2.93;;;17.30;99.90;;;;;;5032288;28;20487;-77
2023/06/20 03:10:56;;;;;;;8.40;3.67;;;17.30;99.90;;;;;;5031565;28;20425;-77
2023/06/20 03:13:22;;;;;;;4.83;3.30;;;17.30;99.90;;;;;;5022961;28;20518;-77
2023/06/20 03:15:51;;;;;;;5.90;3.10;;;17.30;99.90;;;;;;5044093;28;20511;-77
2023/06/20 03:18:18;;;;;;;11.50;3.57;;;17.30;99.90;;;;;;5032875;28;20256;-77
2023/06/20 03:20:48;;;;;;;7.30;3.30;;;17.30;99.90;;;;;;5018777;28;20957;-77
2023/06/20 03:23:14;;;;;;;5.03;3.17;;;17.30;99.90;;;;;;5032419;28;20444;-78
2023/06/20 03:25:40;;;;;;;5.37;2.70;;;17.20;99.90;;;;;;5032005;28;20413;-77
2023/06/20 03:28:06;;;;;;;6.90;3.73;;;17.20;99.90;;;;;;5032627;28;20504;-77
2023/06/20 03:30:32;;;;;;;5.97;3.60;;;17.10;99.90;;;;;;5031989;28;20424;-78
2023/06/20 03:32:58;;;;;;;4.00;2.57;;;17.10;99.90;;;;;;5032087;28;20421;-77
2023/06/20 03:35:23;;;;;;;5.37;2.83;;;17.10;99.90;;;;;;5032132;28;20218;-77
2023/06/20 03:37:49;;;;;;;4.67;2.90;;;17.10;99.90;;;;;;5032263;28;20192;-77
2023/06/20 03:40:15;;;;;;;6.73;2.90;;;17.10;99.90;;;;;;5031496;28;20642;-80
2023/06/20 03:42:41;;;;;;;4.80;3.23;;;17.10;99.90;;;;;;5031309;28;20190;-78
2023/06/20 03:45:07;;;;;;;3.70;2.90;;;17.00;99.90;;;;;;5039487;28;20166;-78
2023/06/20 03:47:33;;;;;;;5.97;3.07;;;17.00;99.90;;;;;;5027653;28;20512;-78
2023/06/20 03:49:59;;;;;;;8.63;4.07;;;16.90;99.90;;;;;;5031536;28;20517;-78
2023/06/20 03:52:24;;;;;;;5.77;2.73;;;16.90;99.90;;;;;;5031412;28;20193;-78
2023/06/20 03:54:50;;;;;;;5.10;3.07;;;16.90;99.90;;;;;;5031229;28;20272;-78
2023/06/20 03:57:15;;;;;;;6.90;2.70;;;16.80;99.90;;;;;;5031927;28;20558;-78
2023/06/20 03:59:41;;;;;;;6.10;3.50;;;16.90;99.90;;;;;;5031994;28;20206;-78
2023/06/20 04:02:07;;;;;;;4.57;3.00;;;16.80;99.90;;;;;;5030938;28;20214;-78
2023/06/20 04:04:32;;;;;;;5.30;3.10;;;16.90;99.90;;;;;;5031492;28;20217;-78
2023/06/20 04:06:58;;;;;;;5.80;3.43;;;16.90;99.90;;;;;;5032160;28;20182;-78
2023/06/20 04:09:27;;;;;;;6.80;3.00;;;17.00;99.90;;;;;;5031410;28;20189;-78
2023/06/20 04:11:55;;;;;;;6.97;3.40;;;17.00;99.90;;;;;;5031259;28;20187;-78
2023/06/20 04:14:21;;;;;;;5.80;3.20;;;17.00;99.90;;;;;;5041276;28;20459;-78
2023/06/20 04:16:49;;;;;;;5.20;2.80;;;17.10;99.90;;;;;;5037553;28;20460;-78
2023/06/20 04:19:16;;;;;;;4.03;2.97;;;17.20;99.90;;;;;;5031404;28;20248;-78
2023/06/20 04:21:42;;;;;;;7.27;2.93;;;17.20;99.90;;;;;;5031216;28;20462;-79
2023/06/20 04:24:07;;;;;;;7.37;3.07;;;17.20;99.90;;;;;;5023833;28;20779;-78
2023/06/20 04:26:36;;;;;;;8.03;2.63;;;17.30;99.90;;;;;;5031411;28;20197;-78
2023/06/20 04:29:01;;;;;;;7.23;3.23;;;17.30;99.90;;;;;;5031530;28;20701;-78
2023/06/20 04:31:29;;;;;;;5.40;2.40;;;17.40;99.90;;;;;;5031466;28;20469;-78
2023/06/20 04:33:57;;;;;;;6.40;3.23;;;17.40;99.90;;;;;;5031212;28;20186;-77
2023/06/20 04:36:23;;;;;;;3.33;1.90;;;17.40;99.90;;;;;;5031230;28;20504;-78
2023/06/20 04:38:49;;;;;;;4.27;2.57;;;17.40;99.90;;;;;;5031054;28;20420;-78
2023/06/20 04:41:14;;;;;;;4.07;2.83;;;17.40;99.90;;;;;;5030407;28;20745;-78
2023/06/20 04:43:44;;;;;;;4.53;2.77;;;17.40;99.90;;;;;;5031224;28;20394;-78
2023/06/20 04:46:12;;;;;;;7.03;2.53;;;17.40;99.90;;;;;;5025252;28;20178;-79
2023/06/20 04:48:38;;;;;;;4.17;2.73;;;17.50;99.90;;;;;;5029837;28;20470;-78
2023/06/20 04:51:07;;;;;;;5.60;3.00;;;17.50;99.90;;;;;;5031227;28;20858;-78
2023/06/20 04:53:34;;;;;;;7.73;2.47;;;17.60;99.90;;;;;;5028480;28;20213;-78
2023/06/20 04:55:59;;;;;;;4.30;2.37;;;17.70;99.90;;;;;;5031349;28;20871;-78
2023/06/20 04:58:28;;;;;;;7.63;2.40;;;17.70;99.90;;;;;;5031461;28;20432;-78
2023/06/20 05:01:00;;;;;;;4.80;2.30;;;17.70;99.90;;;;;;5031148;28;20233;-77
2023/06/20 05:03:26;;;;;;;4.03;2.50;;;17.70;99.90;;;;;;5031648;28;20834;-78
2023/06/20 05:05:52;;;;;;;3.53;2.03;;;17.80;99.90;;;;;;5031389;28;20425;-78
2023/06/20 05:08:18;;;;;;;5.37;2.80;;;17.80;99.90;;;;;;5031482;28;20608;-77
2023/06/20 05:10:44;;;;;;;5.27;2.50;;;17.80;99.90;;;;;;5031136;28;20615;-78
2023/06/20 05:13:10;;;;;;;4.27;2.53;;;17.90;99.90;;;;;;5031423;28;20496;-78
2023/06/20 05:15:35;;;;;;;5.00;2.10;;;17.90;99.90;;;;;;5043050;28;20531;-78
2023/06/20 05:18:01;;;;;;;4.30;2.63;;;18.00;99.90;;;;;;5032939;28;20585;-78
2023/06/20 05:20:27;;;;;;;3.07;1.87;;;18.10;99.90;;;;;;5031110;28;20294;-78
2023/06/20 05:22:53;;;;;;;2.87;1.90;;;18.10;99.90;;;;;;5031935;28;20178;-77
2023/06/20 05:25:19;;;;;;;5.50;2.57;;;18.10;99.90;;;;;;5038552;28;20466;-77
2023/06/20 05:27:46;;;;;;;4.60;2.23;;;18.20;99.90;;;;;;5033327;28;20187;-77
2023/06/20 05:30:11;;;;;;;4.90;2.17;;;18.20;99.90;;;;;;5034434;28;20305;-76
2023/06/20 05:32:37;;;;;;;6.40;2.00;;;18.30;99.90;;;;;;5032878;28;20512;-76
2023/06/20 05:35:05;;;;;;;3.73;1.63;;;18.30;99.90;;;;;;5039928;28;20191;-76
2023/06/20 05:37:30;;;;;;;5.00;3.00;;;18.40;99.90;;;;;;5033632;28;20186;-76
2023/06/20 05:39:57;;;;;;;6.27;2.10;;;18.40;99.90;;;;;;5032771;28;20480;-76
2023/06/20 05:42:23;;;;;;;5.23;2.87;;;18.60;99.90;;;;;;5032361;28;20210;-77
2023/06/20 05:44:49;;;;;;;10.13;2.80;;;;;;;;;;5038401;28;20510;-76
2023/06/20 05:47:18;;;;;;;6.83;2.17;;;;;;;;;;5042201;28;20327;-76
2023/06/20 05:49:47;;;;;;;3.53;2.10;;;18.80;99.90;;;;;;5033301;28;20425;-75
2023/06/20 05:52:13;;;;;;;4.37;2.63;;;18.80;99.90;;;;;;5031428;28;20515;-74
2023/06/20 05:54:42;;;;;;;3.60;2.60;;;18.70;99.90;;;;;;5031392;28;20925;-75
2023/06/20 05:57:08;;;;;;;4.87;2.83;;;18.70;99.90;;;;;;5031116;28;20432;-75
2023/06/20 05:59:34;;;;;;;7.43;3.40;;;18.80;99.90;;;;;;5031400;28;20461;-75
2023/06/20 06:01:59;;;;;;;5.87;2.80;;;18.80;99.90;;;;;;5030983;28;20182;-75
2023/06/20 06:04:28;;;;;;;7.90;3.10;;;18.90;99.90;;;;;;5031117;28;20198;-75
2023/06/20 06:06:54;;;;;;;9.33;3.17;;;19.00;99.90;;;;;;5031943;28;20186;-75
2023/06/20 06:09:20;;;;;;;5.60;2.70;;;19.00;99.90;;;;;;5031346;28;20444;-75
2023/06/20 06:11:45;;;;;;;4.90;2.40;;;19.10;99.90;;;;;;5031260;28;20196;-76
2023/06/20 06:14:12;;;;;;;5.63;3.37;;;19.10;99.90;;;;;;5039355;28;20428;-75
2023/06/20 06:16:38;;;;;;;4.67;2.73;;;;;;;;;;5037333;28;20178;-76
2023/06/20 06:19:04;;;;;;;8.10;3.03;;;19.30;99.90;;;;;;5031203;28;20461;-76
2023/06/20 06:21:30;;;;;;;4.77;2.90;;;19.40;99.90;;;;;;5031059;28;20884;-76
2023/06/20 06:23:55;;;;;;;7.97;3.20;;;19.40;99.90;;;;;;5041172;28;20312;-75
2023/06/20 06:26:21;;;;;;;3.70;1.77;;;;;;;;;;5032534;28;20242;-76
2023/06/20 06:28:47;;;;;;;5.50;2.70;;;;;;;;;;5031591;28;20190;-76
2023/06/20 06:31:17;;;;;;;5.10;2.97;;;19.60;99.90;;;;;;5031105;28;20190;-76
2023/06/20 06:33:43;;;;;;;6.57;2.57;;;19.70;99.90;;;;;;5031637;28;20417;-76
2023/06/20 06:36:09;;;;;;;4.67;2.60;;;19.80;99.90;;;;;;5031954;28;20767;-76
2023/06/20 06:38:35;;;;;;;12.47;3.23;;;;;;;;;;5030341;28;20600;-76
2023/06/20 06:41:02;;;;;;;11.03;3.50;;;19.90;99.90;;;;;;5031445;28;20473;-75
2023/06/20 06:43:27;;;;;;;9.90;3.60;;;20.00;99.90;;;;;;5031268;28;20421;-75
2023/06/20 06:45:53;;;;;;;10.03;2.60;;;20.00;99.90;;;;;;5045147;28;20535;-75
2023/06/20 06:48:19;;;;;;;5.77;2.97;;;20.00;99.90;;;;;;5038235;28;20205;-76
2023/06/20 06:50:45;;;;;;;4.07;2.67;;;20.10;99.90;;;;;;5029764;28;20261;-76
2023/06/20 06:53:11;;;;;;;5.50;2.80;;;20.20;99.90;;;;;;5030629;28;20635;-76
2023/06/20 06:55:37;;;;;;;3.80;2.50;;;20.50;99.90;;;;;;5030661;28;20425;-76
2023/06/20 06:58:03;;;;;;;9.00;3.30;;;21.60;99.90;;;;;;5030512;28;20900;-76
2023/06/20 07:00:29;;;;;;;4.43;2.50;;;;;;;;;;5030824;28;20229;-76
2023/06/20 07:02:55;;;;;;;5.40;2.47;;;20.80;99.90;;;;;;5030625;28;20179;-76
2023/06/20 07:05:22;;;;;;;6.53;2.60;;;20.90;99.90;;;;;;5030817;28;20481;-75
2023/06/20 07:07:47;;;;;;;6.60;3.47;;;21.00;99.90;;;;;;5030848;28;20495;-76
2023/06/20 07:10:13;;;;;;;6.40;3.30;;;21.20;99.90;;;;;;5030039;28;20190;-76
2023/06/20 07:12:39;;;;;;;8.73;2.73;;;21.30;99.90;;;;;;5030098;28;20311;-76
2023/06/20 07:15:05;;;;;;;4.20;2.90;;;21.40;99.90;;;;;;5038500;28;20193;-75
2023/06/20 07:17:30;;;;;;;3.80;2.03;;;21.60;99.90;;;;;;5049840;28;20166;-76
2023/06/20 07:19:56;;;;;;;5.37;2.97;;;21.80;99.90;;;;;;5031283;28;20816;-75
2023/06/20 07:22:22;;;;;;;4.67;2.33;;;21.90;99.90;;;;;;5032145;28;20194;-75
2023/06/20 07:24:48;;;;;;;5.00;3.27;;;22.20;99.90;;;;;;5032358;28;20190;-74
2023/06/20 07:27:14;;;;;;;5.30;3.00;;;22.40;99.90;;;;;;5031914;28;20179;-75
2023/06/20 07:29:40;;;;;;;6.60;2.93;;;22.60;99.90;;;;;;5018194;28;20440;-75
2023/06/20 07:32:06;;;;;;;4.50;2.63;;;22.80;99.90;;;;;;5031435;28;20190;-74
2023/06/20 07:34:32;;;;;;;5.53;2.83;;;23.10;99.90;;;;;;5031405;28;20425;-74
2023/06/20 07:36:57;;;;;;;5.83;3.33;;;23.20;99.90;;;;;;5031691;28;20186;-73
2023/06/20 07:39:23;;;;;;;5.07;2.47;;;23.30;99.90;;;;;;5030827;28;20785;-74
2023/06/20 07:41:48;;;;;;;3.77;2.60;;;23.70;99.90;;;;;;5031187;28;20186;-74
2023/06/20 07:44:14;;;;;;;4.30;2.40;;;24.10;99.90;;;;;;5031686;28;20193;-74
2023/06/20 07:46:39;;;;;;;5.63;2.47;;;24.40;99.90;;;;;;5044895;28;20189;-73
2023/06/20 07:49:06;;;;;;;18.27;3.40;;;24.40;99.90;;;;;;5030949;28;20340;-73
2023/06/20 07:51:33;;;;;;;6.93;2.70;;;24.90;99.90;;;;;;5030987;28;20331;-73
2023/06/20 07:54:02;;;;;;;5.53;3.03;;;25.10;99.90;;;;;;5025905;28;20514;-70
2023/06/20 07:56:28;;;;;;;6.83;3.40;;;25.40;99.90;;;;;;5029758;28;20452;-70
2023/06/20 07:58:53;;;;;;;4.03;2.13;;;25.50;99.90;;;;;;5029505;28;20210;-70
2023/06/20 08:01:19;;;;;;;6.07;2.83;;;25.80;99.90;;;;;;5029205;28;20221;-70
2023/06/20 08:03:45;;;;;;;8.67;2.83;;;26.40;99.90;;;;;;5029423;28;20301;-70
2023/06/20 08:06:10;;;;;;;7.30;2.88;;;26.70;99.20;;;;;;5029791;28;20213;-70
2023/06/20 08:08:37;;;;;;;3.78;2.35;;;26.80;98.40;;;;;;5029798;28;20219;-69
2023/06/20 08:11:03;;;;;;;4.57;3.03;;;26.30;98.40;;;;;;5028434;28;20185;-69
2023/06/20 08:13:29;;;;;;;10.73;2.90;;;26.50;98.70;;;;;;5031899;28;20200;-69
2023/06/20 08:15:55;;;;;;;9.93;3.22;;;26.80;97.60;;;;;;5039990;28;20180;-69
2023/06/20 08:18:20;;;;;;;5.50;2.78;;;27.40;96.60;;;;;;5029660;28;20593;-69
2023/06/20 08:20:47;;;;;;;7.20;2.70;;;27.90;97.10;;;;;;5028955;28;20287;-70
2023/06/20 08:23:13;;;;;;;7.70;3.10;;;27.90;96.00;;;;;;5033063;28;20176;-70
2023/06/20 08:25:39;;;;;;;3.90;2.47;;;28.40;95.40;;;;;;5034651;28;20193;-68
2023/06/20 08:28:04;;;;;;;7.68;3.70;;;28.80;93.10;;;;;;5028834;28;20185;-68
2023/06/20 08:30:30;;;;;;;8.80;3.97;;;28.70;93.80;;;;;;5028907;28;20182;-68
2023/06/20 08:32:56;;;;;;;8.23;3.83;;;29.20;92.60;;;;;;5029099;28;20182;-68
2023/06/20 08:35:21;;;;;;;5.43;3.15;;;29.50;92.50;;;;;;5028668;28;20623;-68
2023/06/20 08:37:48;;;;;;;6.95;3.00;;;29.20;91.80;;;;;;5015863;28;20189;-68
2023/06/20 08:40:14;;;;;;;6.10;2.95;;;29.50;90.80;;;;;;5028679;28;20213;-68
2023/06/20 08:42:42;;;;;;;7.55;2.60;;;29.40;90.90;;;;;;5015103;28;20173;-68
2023/06/20 08:45:09;;;;;;;6.28;2.83;;;29.50;91.00;;;;;;5028789;28;20178;-67
2023/06/20 08:47:34;;;;;;;9.07;2.60;;;30.00;90.10;;;;;;5032204;28;20289;-68
2023/06/20 08:50:00;;;;;;;10.75;2.47;;;29.80;90.70;;;;;;5028798;28;20186;-67
2023/06/20 08:52:30;;;;;;;5.43;3.25;;;29.90;90.40;;;;;;5029145;28;20206;-67
2023/06/20 08:54:56;;;;;;;4.80;2.70;;;30.10;90.60;;;;;;5028062;28;20635;-67
2023/06/20 08:57:22;;;;;;;7.65;3.58;;;30.30;90.30;;;;;;5028917;28;20504;-67
2023/06/20 08:59:48;;;;;;;4.68;2.60;;;31.30;84.10;;;;;;5028630;28;20206;-69
2023/06/20 09:02:15;;;;;;;5.60;2.80;;;30.70;84.80;;;;;;5030213;28;20562;-67
2023/06/20 09:04:41;;;;;;;4.10;2.88;;;30.80;87.00;;;;;;5032695;28;20233;-63
2023/06/20 09:07:17;;;;;;;7.07;2.83;;;30.90;87.90;;;;;;5032906;28;20213;-66
2023/06/20 09:09:43;;;;;;;3.85;2.55;;;30.50;82.60;;;;;;5032711;28;20261;-69
2023/06/20 09:12:09;;;;;;;4.30;2.35;;;30.70;82.80;;;;;;5032861;28;20193;-66
2023/06/20 09:14:35;;;;;;;7.60;2.78;;;30.00;86.40;;;;;;5041905;28;20181;-66
2023/06/20 09:17:01;;;;;;;6.45;2.50;;;29.80;85.10;;;;;;5039709;28;20243;-66
2023/06/20 09:19:26;;;;;;;4.90;2.90;;;30.00;86.30;;;;;;5033959;28;20217;-67
2023/06/20 09:22:03;;;;;;;3.22;2.45;;;30.30;84.00;;;;;;5033666;28;20185;-66
2023/06/20 09:24:29;;;;;;;6.57;3.33;;;30.00;82.00;;;;;;5042921;28;20193;-66
2023/06/20 09:26:54;;;;;;;3.55;2.33;;;29.80;80.60;;;;;;5034105;28;20178;-67
2023/06/20 09:29:20;;;;;;;6.50;3.13;;;29.90;82.30;;;;;;5033516;28;20551;-66
2023/06/20 09:31:49;;;;;;;3.90;2.47;;;30.10;82.70;;;;;;5033582;28;20178;-66
2023/06/20 09:34:18;;;;;;;10.70;3.83;;;30.30;80.60;;;;;;5034009;28;20181;-67
2023/06/20 09:36:44;;;;;;;5.63;2.92;;;30.30;81.20;;;;;;5033873;28;20178;-66
2023/06/20 09:39:17;;;;;;;5.55;2.67;;;30.30;81.40;;;;;;5033291;28;20198;-66
2023/06/20 09:41:47;;;;;;;12.38;3.03;;;30.70;78.70;;;;;;5033555;28;20204;-66
2023/06/20 09:44:13;;;;;;;5.05;3.05;;;30.40;77.80;;;;;;5029554;28;20534;-67
2023/06/20 09:46:40;;;;;;;10.63;2.83;;;30.30;78.10;;;;;;5047348;28;20178;-66
2023/06/20 09:49:06;;;;;;;6.53;3.17;;;29.90;79.50;;;;;;5033775;28;20189;-66
2023/06/20 09:51:37;;;;;;;4.85;2.42;;;29.60;80.50;;;;;;5033120;28;20178;-66
2023/06/20 09:54:07;;;;;;;3.75;2.17;;;29.90;80.10;;;;;;5032952;28;20174;-66
2023/06/20 09:56:43;;;;;;;6.63;3.72;;;29.90;80.10;;;;;;5033235;28;20507;-67
2023/06/20 09:59:10;;;;;;;6.85;3.03;;;30.30;77.50;;;;;;5033118;28;20209;-66
2023/06/20 10:01:38;;;;;;;5.65;2.47;;;29.70;77.30;;;;;;5032644;28;20174;-66
2023/06/20 10:04:05;;;;;;;14.27;2.65;;;30.00;78.70;;;;;;5033211;28;20197;-66
2023/06/20 10:06:31;;;;;;;5.57;2.33;;;30.00;78.30;;;;;;5033004;28;20194;-67
2023/06/20 10:08:58;;;;;;;5.20;2.78;;;30.50;75.80;;;;;;5032986;28;20497;-66
2023/06/20 10:11:24;;;;;;;4.55;2.67;;;30.40;74.90;;;;;;5030641;28;20269;-66
2023/06/20 10:13:51;;;;;;;4.75;2.55;;;30.40;78.40;;;;;;5040350;28;20200;-67
2023/06/20 10:16:16;;;;;;;5.68;2.50;;;30.40;77.50;;;;;;5038336;28;20178;-66
2023/06/20 10:18:43;;;;;;;16.08;3.40;;;30.50;76.20;;;;;;5033916;28;20201;-66
2023/06/20 10:21:13;;;;;;;3.90;2.83;;;30.30;75.60;;;;;;5032024;28;20228;-66
2023/06/20 10:23:39;;;;;;;3.90;2.58;;;30.40;75.00;;;;;;5038436;28;20189;-66
2023/06/20 10:26:08;;;;;;;4.65;2.45;;;30.40;72.30;;;;;;5032844;28;20535;-66
2023/06/20 10:28:36;;;;;;;2.97;1.90;;;30.30;71.70;;;;;;5032254;28;20182;-66
2023/06/20 10:31:02;;;;;;;5.40;2.53;;;30.40;73.80;;;;;;5030995;28;20193;-65
2023/06/20 10:33:29;;;;;;;6.43;3.00;;;30.30;76.20;;;;;;5030948;28;20745;-66
2023/06/20 10:36:05;;;;;;;7.90;2.20;;;30.20;73.90;;;;;;5030624;28;20186;-66
2023/06/20 10:38:33;;;;;;;7.97;2.97;;;30.40;73.80;;;;;;5030794;28;20213;-66
2023/06/20 10:41:11;;;;;;;6.38;2.25;;;30.40;75.90;;;;;;5029967;28;20212;-66
2023/06/20 10:43:55;;;;;;;4.82;2.78;;;30.30;75.10;;;;;;5030859;28;20173;-66
2023/06/20 10:46:34;;;;;;;4.47;2.20;;;30.20;74.30;;;;;;5045807;28;20235;-66
2023/06/20 10:49:01;;;;;;;4.45;2.72;;;30.20;73.80;;;;;;5030665;28;20174;-65
2023/06/20 10:51:29;;;;;;;17.42;3.20;;;30.40;74.20;;;;;;5030210;28;20192;-66
2023/06/20 10:54:10;;;;;;;5.13;2.42;;;30.40;72.20;;;;;;5030217;28;20204;-65
2023/06/20 10:56:36;;;;;;;6.25;3.08;;;30.00;72.30;;;;;;5030275;28;20181;-66
2023/06/20 10:59:12;;;;;;;5.28;2.50;;;30.00;75.40;;;;;;5030353;28;20174;-66
2023/06/20 11:01:38;;;;;;;6.03;2.78;;;30.20;74.30;;;;;;5030487;28;20280;-66
2023/06/20 11:04:09;;;;;;;7.93;3.22;;;30.20;71.70;;;;;;5030505;28;20272;-66
2023/06/20 11:06:35;;;;;;;3.17;1.88;;;30.20;69.70;;;;;;5030355;28;20178;-66
2023/06/20 11:09:01;;;;;;;12.50;3.20;;;30.20;69.90;;;;;;5030589;28;20185;-66
2023/06/20 11:11:53;;;;;;;6.57;2.40;;;30.00;68.90;;;;;;5030267;28;20670;-66
2023/06/20 11:14:23;;;;;;;3.75;2.15;;;30.30;67.80;;;;;;5033876;28;20649;-66
2023/06/20 11:16:50;;;;;;;9.45;3.20;;;30.40;68.30;;;;;;5035710;28;20790;-67
2023/06/20 11:19:20;;;;;;;13.55;3.08;;;30.40;69.50;;;;;;5029588;28;20233;-67
2023/06/20 11:21:45;;;;;;;4.50;2.63;;;30.50;70.20;;;;;;5029556;28;20859;-67
2023/06/20 11:24:11;;;;;;;11.15;2.58;;;30.40;69.90;;;;;;5038928;28;20189;-67
2023/06/20 11:26:37;;;;;;;4.25;2.60;;;30.40;69.80;;;;;;5030471;28;20186;-67
2023/06/20 11:29:04;;;;;;;3.67;2.15;;;30.60;71.00;;;;;;5029532;28;20190;-66
2023/06/20 11:31:31;;;;;;;5.25;3.28;;;30.70;71.10;;;;;;5029197;28;20189;-66
2023/06/20 11:34:09;;;;;;;6.45;3.17;;;30.70;70.10;;;;;;5029435;28;20224;-66
2023/06/20 11:36:38;;;;;;;7.63;3.70;;;30.90;70.70;;;;;;5029565;28;20174;-67
2023/06/20 11:39:06;;;;;;;5.78;2.72;;;30.80;69.10;;;;;;5029266;28;20178;-67
2023/06/20 11:41:32;;;;;;;7.47;2.55;;;30.80;70.30;;;;;;5029637;28;20177;-67
2023/06/20 11:43:59;;;;;;;7.43;3.25;;;30.90;67.70;;;;;;5029463;28;20208;-66
2023/06/20 11:46:25;;;;;;;6.43;3.17;;;30.70;68.10;;;;;;5044801;28;20173;-67
2023/06/20 11:48:53;;;;;;;9.10;3.28;;;30.60;70.20;;;;;;5029435;28;20186;-66
2023/06/20 11:51:26;;;;;;;4.25;2.60;;;30.90;70.20;;;;;;5029463;28;20174;-67
2023/06/20 11:54:12;;;;;;;8.25;2.95;;;30.80;69.70;;;;;;5029662;28;20272;-67
2023/06/20 11:56:41;;;;;;;6.45;3.13;;;30.70;68.40;;;;;;5025861;28;20521;-67
2023/06/20 11:59:08;;;;;;;6.88;3.30;;;31.00;66.90;;;;;;5029147;28;20204;-67
2023/06/20 12:01:34;;;;;;;9.82;3.20;;;31.00;69.40;;;;;;5025503;28;20179;-67
2023/06/20 12:04:02;;;;;;;13.20;4.38;;;31.20;68.30;;;;;;5027331;28;20194;-67
2023/06/20 12:06:32;;;;;;;5.43;3.50;;;31.00;67.30;;;;;;5010879;28;20217;-67
2023/06/20 12:09:04;;;;;;;6.32;3.75;;;31.00;69.00;;;;;;5029097;28;20544;-67
2023/06/20 12:11:31;;;;;;;21.88;3.88;;;31.00;66.90;;;;;;5029057;28;20216;-67
2023/06/20 12:13:57;;;;;;;12.00;3.80;;;31.10;67.10;;;;;;5035733;28;20234;-66
2023/06/20 12:16:23;;;;;;;10.45;3.90;;;31.00;68.40;;;;;;5037618;28;20677;-67
2023/06/20 12:18:54;;;;;;;7.07;2.85;;;31.00;66.50;;;;;;5029622;28;20216;-66
2023/06/20 12:21:19;;;;;;;6.85;3.03;;;31.10;68.50;;;;;;5029050;28;20237;-67
2023/06/20 12:23:46;;;;;;;4.05;2.83;;;31.20;67.20;;;;;;5037665;28;20251;-66
2023/06/20 12:26:13;;;;;;;24.92;3.55;;;31.40;66.90;;;;;;5029989;28;20182;-67
2023/06/20 12:28:41;;;;;;;7.18;2.88;;;31.60;63.90;;;;;;5029246;28;20178;-66
2023/06/20 12:31:07;;;;;;;5.20;3.00;;;31.70;67.30;;;;;;5028681;28;20197;-67
2023/06/20 12:33:32;;;;;;;4.93;3.15;;;31.60;65.20;;;;;;5028726;28;20805;-67
2023/06/20 12:35:58;;;;;;;6.65;3.42;;;31.70;65.20;;;;;;5028303;28;20214;-67
2023/06/20 12:38:25;;;;;;;6.35;2.97;;;31.50;64.40;;;;;;5029266;28;20190;-67
2023/06/20 12:40:52;;;;;;;4.65;2.90;;;31.50;64.10;;;;;;5028244;28;20201;-67
2023/06/20 12:43:17;;;;;;;8.27;3.83;;;31.60;64.30;;;;;;5029338;28;20186;-67
2023/06/20 12:45:46;;;;;;;5.28;2.83;;;31.80;65.10;;;;;;5035305;28;20248;-67
2023/06/20 12:48:11;;;;;;;11.88;2.92;;;31.60;62.10;;;;;;5022773;28;20275;-68
2023/06/20 12:50:37;;;;;;;6.72;3.85;;;31.40;62.70;;;;;;5028456;28;20217;-67